createdAt,value
2022-10-09T00:01:41.482Z,101573.31
2022-10-09T00:04:07.817Z,101574.84
2022-10-09T00:06:34.878Z,101567.34
2022-10-09T00:09:02.058Z,101568.06
2022-10-09T00:11:30.294Z,101564.16
2022-10-09T00:13:57.582Z,101566.16
2022-10-09T00:16:25.210Z,101569.88
2022-10-09T00:18:52.195Z,101573.97
2022-10-09T00:21:23.211Z,101565.31
2022-10-09T00:23:50.811Z,101563.78
2022-10-09T00:26:17.554Z,101572.22
2022-10-09T00:28:44.101Z,101582.16
2022-10-09T00:31:11.209Z,101574.56
2022-10-09T00:33:38.281Z,101582.31
2022-10-09T00:36:07.204Z,101573.75
2022-10-09T00:38:33.965Z,101577.72
2022-10-09T00:41:00.541Z,101573.97
2022-10-09T00:43:46.379Z,101576.75
2022-10-09T00:46:45.343Z,101581.78
2022-10-09T00:49:28.275Z,101582.25
2022-10-09T00:51:58.376Z,101586.72
2022-10-09T00:54:29.801Z,101592.09
2022-10-09T00:56:56.298Z,101586.44
2022-10-09T00:59:25.497Z,101591.81
2022-10-09T01:01:52.689Z,101591.75
2022-10-09T01:04:19.323Z,101597.00
2022-10-09T01:07:01.657Z,101602.41
2022-10-09T01:09:33.702Z,101600.53
2022-10-09T01:12:10.760Z,101605.00
2022-10-09T01:15:03.881Z,101606.19
2022-10-09T01:17:56.266Z,101600.59
2022-10-09T01:20:26.934Z,101603.88
2022-10-09T01:23:18.766Z,101599.91
2022-10-09T01:25:57.407Z,101591.69
2022-10-09T01:28:27.242Z,101600.25
2022-10-09T01:30:53.877Z,101596.25
2022-10-09T01:33:20.187Z,101592.50
2022-10-09T01:35:47.047Z,101592.88
2022-10-09T01:38:14.686Z,101586.31
2022-10-09T01:40:41.685Z,101588.53
2022-10-09T01:43:08.021Z,101584.44
2022-10-09T01:45:39.888Z,101591.00
2022-10-09T01:48:11.834Z,101580.72
2022-10-09T01:50:42.802Z,101582.09
2022-10-09T01:53:12.354Z,101584.53
2022-10-09T01:56:04.905Z,101587.09
2022-10-09T01:58:44.005Z,101572.25
2022-10-09T02:01:21.175Z,101577.63
2022-10-09T02:03:50.564Z,101581.84
2022-10-09T02:06:19.274Z,101585.69
2022-10-09T02:08:48.843Z,101585.69
2022-10-09T02:11:15.972Z,101586.63
2022-10-09T02:13:44.983Z,101584.41
2022-10-09T02:16:14.265Z,101580.69
2022-10-09T02:18:49.551Z,101579.25
2022-10-09T02:21:22.091Z,101576.66
2022-10-09T02:23:50.592Z,101575.16
2022-10-09T02:26:18.291Z,101575.03
2022-10-09T02:28:46.101Z,101582.97
2022-10-09T02:31:27.704Z,101585.97
2022-10-09T02:33:58.771Z,101578.50
2022-10-09T02:36:25.851Z,101580.94
2022-10-09T02:38:53.794Z,101578.25
2022-10-09T02:41:20.495Z,101578.00
2022-10-09T02:43:46.882Z,101570.69
2022-10-09T02:46:13.647Z,101565.19
2022-10-09T02:48:39.991Z,101570.81
2022-10-09T02:51:06.907Z,101573.50
2022-10-09T02:53:33.213Z,101576.19
2022-10-09T02:55:59.553Z,101569.50
2022-10-09T02:58:25.877Z,101573.59
2022-10-09T03:00:53.606Z,101569.72
2022-10-09T03:03:20.903Z,101575.78
2022-10-09T03:05:47.597Z,101571.41
2022-10-09T03:08:14.323Z,101570.69
2022-10-09T03:10:41.102Z,101580.97
2022-10-09T03:13:07.766Z,101573.19
2022-10-09T03:15:35.244Z,101569.41
2022-10-09T03:18:01.595Z,101578.44
2022-10-09T03:20:30.071Z,101572.59
2022-10-09T03:22:56.695Z,101571.31
2022-10-09T03:25:23.247Z,101574.72
2022-10-09T03:27:49.560Z,101579.41
2022-10-09T03:30:15.899Z,101578.59
2022-10-09T03:32:42.387Z,101577.34
2022-10-09T03:35:08.910Z,101585.63
2022-10-09T03:37:35.256Z,101590.78
2022-10-09T03:40:01.598Z,101583.16
2022-10-09T03:42:27.915Z,101591.81
2022-10-09T03:44:54.234Z,101589.19
2022-10-09T03:47:20.640Z,101593.03
2022-10-09T03:49:46.966Z,101601.41
2022-10-09T03:52:13.280Z,101607.25
2022-10-09T03:54:39.578Z,101589.09
2022-10-09T03:57:05.887Z,101594.28
2022-10-09T03:59:32.277Z,101595.94
2022-10-09T04:01:58.592Z,101595.63
2022-10-09T04:04:24.937Z,101601.00
2022-10-09T04:06:51.252Z,101600.19
2022-10-09T04:09:17.568Z,101599.53
2022-10-09T04:11:43.891Z,101588.91
2022-10-09T04:14:10.528Z,101597.09
2022-10-09T04:16:36.870Z,101596.75
2022-10-09T04:19:03.314Z,101594.22
2022-10-09T04:21:29.638Z,101595.38
2022-10-09T04:23:55.960Z,101597.81
2022-10-09T04:26:22.276Z,101596.38
2022-10-09T04:28:48.645Z,101596.09
2022-10-09T04:31:15.014Z,101592.63
2022-10-09T04:33:41.355Z,101584.81
2022-10-09T04:36:07.764Z,101587.38
2022-10-09T04:38:34.078Z,101597.50
2022-10-09T04:41:02.900Z,101591.47
2022-10-09T04:43:29.617Z,101586.66
2022-10-09T04:45:56.169Z,101588.63
2022-10-09T04:48:22.680Z,101594.47
2022-10-09T04:50:49.059Z,101592.38
2022-10-09T04:53:15.431Z,101585.44
2022-10-09T04:55:45.263Z,101590.16
2022-10-09T04:58:12.946Z,101585.00
2022-10-09T05:00:41.298Z,101587.69
2022-10-09T05:03:07.797Z,101587.75
2022-10-09T05:05:34.097Z,101577.47
2022-10-09T05:08:00.414Z,101583.28
2022-10-09T05:10:26.722Z,101581.88
2022-10-09T05:12:53.615Z,101576.28
2022-10-09T05:15:19.930Z,101581.56
2022-10-09T05:17:46.365Z,101578.88
2022-10-09T05:20:12.699Z,101576.19
2022-10-09T05:22:38.995Z,101575.06
2022-10-09T05:25:06.026Z,101580.84
2022-10-09T05:27:32.330Z,101582.19
2022-10-09T05:29:58.641Z,101594.31
2022-10-09T05:32:24.956Z,101593.31
2022-10-09T05:34:51.276Z,101597.78
2022-10-09T05:37:17.626Z,101597.00
2022-10-09T05:39:43.946Z,101595.28
2022-10-09T05:42:10.405Z,101594.13
2022-10-09T05:44:36.747Z,101591.88
2022-10-09T05:47:03.118Z,101598.50
2022-10-09T05:49:29.451Z,101601.66
2022-10-09T05:51:55.775Z,101591.63
2022-10-09T05:54:22.109Z,101592.56
2022-10-09T05:56:48.595Z,101594.34
2022-10-09T05:59:17.365Z,101595.06
2022-10-09T06:01:45.706Z,101601.25
2022-10-09T06:04:20.843Z,101596.44
2022-10-09T06:06:47.924Z,101598.97
2022-10-09T06:09:16.178Z,101597.19
2022-10-09T06:11:43.166Z,101598.38
2022-10-09T06:14:11.789Z,101591.47
2022-10-09T06:16:40.929Z,101595.13
2022-10-09T06:19:10.005Z,101596.78
2022-10-09T06:21:36.318Z,101602.22
2022-10-09T06:24:04.078Z,101607.59
2022-10-09T06:26:31.236Z,101600.25
2022-10-09T06:28:59.047Z,101594.38
2022-10-09T06:31:27.910Z,101603.78
2022-10-09T06:33:54.913Z,101594.53
2022-10-09T06:36:24.326Z,101602.28
2022-10-09T06:38:51.633Z,101607.25
2022-10-09T06:41:20.446Z,101608.09
2022-10-09T06:43:51.921Z,101610.16
2022-10-09T06:46:20.045Z,101604.28
2022-10-09T06:48:46.649Z,101607.91
2022-10-09T06:51:19.104Z,101611.00
2022-10-09T06:53:51.505Z,101621.50
2022-10-09T06:56:19.630Z,101614.25
2022-10-09T06:58:46.302Z,101613.34
2022-10-09T07:01:15.267Z,101621.22
2022-10-09T07:03:43.822Z,101623.44
2022-10-09T07:06:17.078Z,101629.56
2022-10-09T07:08:45.769Z,101631.56
2022-10-09T07:11:13.873Z,101633.34
2022-10-09T07:13:41.949Z,101630.22
2022-10-09T07:16:09.229Z,101627.19
2022-10-09T07:18:36.151Z,101630.94
2022-10-09T07:21:07.984Z,101632.28
2022-10-09T07:23:35.712Z,101635.25
2022-10-09T07:26:02.555Z,101635.72
2022-10-09T07:28:29.968Z,101633.31
2022-10-09T07:30:56.820Z,101632.56
2022-10-09T07:33:23.169Z,101632.41
2022-10-09T07:35:56.766Z,101635.19
2022-10-09T07:38:23.904Z,101629.13
2022-10-09T07:40:51.399Z,101621.88
2022-10-09T07:43:17.937Z,101630.38
2022-10-09T07:45:44.276Z,101624.00
2022-10-09T07:48:10.635Z,101627.59
2022-10-09T07:50:37.014Z,101622.00
2022-10-09T07:53:03.647Z,101626.59
2022-10-09T07:55:29.946Z,101627.19
2022-10-09T07:57:56.328Z,101630.88
2022-10-09T08:00:22.647Z,101627.94
2022-10-09T08:02:49.288Z,101621.06
2022-10-09T08:05:15.818Z,101620.78
2022-10-09T08:07:42.111Z,101623.41
2022-10-09T08:10:08.823Z,101615.69
2022-10-09T08:12:35.143Z,101617.47
2022-10-09T08:15:01.503Z,101615.44
2022-10-09T08:17:27.806Z,101619.28
2022-10-09T08:19:54.120Z,101616.03
2022-10-09T08:22:20.415Z,101614.47
2022-10-09T08:24:46.737Z,101619.91
2022-10-09T08:27:13.036Z,101618.56
2022-10-09T08:29:40.312Z,101615.00
2022-10-09T08:32:06.849Z,101619.41
2022-10-09T08:34:33.178Z,101613.50
2022-10-09T08:36:59.482Z,101617.03
2022-10-09T08:39:25.802Z,101620.69
2022-10-09T08:41:55.321Z,101609.09
2022-10-09T08:44:44.000Z,101611.78
2022-10-09T08:47:45.673Z,101606.66
2022-10-09T08:50:45.153Z,101607.53
2022-10-09T08:53:55.798Z,101596.16
2022-10-09T08:56:23.131Z,101598.66
2022-10-09T08:58:49.461Z,101599.50
2022-10-09T09:01:41.835Z,101608.47
2022-10-09T09:04:42.272Z,101601.16
2022-10-09T09:07:34.270Z,101593.56
2022-10-09T09:10:28.587Z,101584.00
2022-10-09T09:13:03.617Z,101587.28
2022-10-09T09:15:45.277Z,101589.16
2022-10-09T09:18:37.565Z,101580.69
2022-10-09T09:21:15.254Z,101584.22
2022-10-09T09:23:46.765Z,101580.16
2022-10-09T09:26:20.497Z,101577.41
2022-10-09T09:28:51.046Z,101576.00
2022-10-09T09:31:20.965Z,101582.78
2022-10-09T09:34:22.599Z,101567.22
2022-10-09T09:36:50.831Z,101572.31
2022-10-09T09:42:06.763Z,101555.88
2022-10-09T09:44:36.139Z,101558.31
2022-10-09T09:47:02.439Z,101553.66
2022-10-09T09:49:29.169Z,101555.84
2022-10-09T09:51:58.194Z,101549.19
2022-10-09T09:54:26.636Z,101546.38
2022-10-09T09:57:15.846Z,101550.22
2022-10-09T09:59:44.041Z,101537.88
2022-10-09T10:02:24.688Z,101537.56
2022-10-09T10:04:58.745Z,101530.66
2022-10-09T10:07:33.961Z,101523.50
2022-10-09T10:10:14.820Z,101519.75
2022-10-09T10:12:53.832Z,101522.75
2022-10-09T10:15:24.882Z,101517.09
2022-10-09T10:18:17.871Z,101519.50
2022-10-09T10:20:47.517Z,101516.84
2022-10-09T10:23:32.366Z,101512.03
2022-10-09T10:26:02.145Z,101514.72
2022-10-09T10:28:35.523Z,101509.19
2022-10-09T10:31:08.016Z,101514.75
2022-10-09T10:33:36.063Z,101506.47
2022-10-09T10:36:02.513Z,101497.97
2022-10-09T10:38:41.263Z,101507.53
2022-10-09T10:41:36.289Z,101500.47
2022-10-09T10:44:18.751Z,101492.88
2022-10-09T10:46:50.456Z,101495.41
2022-10-09T10:49:20.527Z,101487.41
2022-10-09T10:52:08.362Z,101490.09
2022-10-09T10:54:45.183Z,101479.59
2022-10-09T10:57:20.932Z,101480.38
2022-10-09T11:00:07.218Z,101481.69
2022-10-09T11:03:01.559Z,101476.00
2022-10-09T11:05:34.905Z,101470.44
2022-10-09T11:08:37.864Z,101468.84
2022-10-09T11:11:13.134Z,101468.03
2022-10-09T11:14:13.057Z,101455.50
2022-10-09T11:17:09.656Z,101455.72
2022-10-09T11:19:49.479Z,101444.19
2022-10-09T11:23:06.650Z,101439.81
2022-10-09T11:25:49.506Z,101438.78
2022-10-09T11:28:22.108Z,101432.72
2022-10-09T11:30:57.400Z,101425.28
2022-10-09T11:33:37.227Z,101423.44
2022-10-09T11:36:25.151Z,101417.97
2022-10-09T11:38:58.035Z,101408.44
2022-10-09T11:41:26.479Z,101404.03
2022-10-09T11:44:17.268Z,101392.28
2022-10-09T11:47:08.801Z,101387.59
2022-10-09T11:49:49.009Z,101395.47
2022-10-09T11:52:23.837Z,101384.25
2022-10-09T11:54:50.053Z,101387.44
2022-10-09T11:57:27.125Z,101375.16
2022-10-09T12:00:04.674Z,101375.22
2022-10-09T12:02:31.633Z,101359.78
2022-10-09T12:04:58.142Z,101367.28
2022-10-09T12:07:28.888Z,101359.34
2022-10-09T12:10:00.322Z,101355.06
2022-10-09T12:12:27.737Z,101352.28
2022-10-09T12:14:54.357Z,101347.03
2022-10-09T12:17:23.650Z,101348.16
2022-10-09T12:19:55.348Z,101338.81
2022-10-09T12:22:40.340Z,101332.03
2022-10-09T12:25:17.171Z,101329.50
2022-10-09T12:27:44.942Z,101334.16
2022-10-09T12:30:11.217Z,101327.84
2022-10-09T12:32:41.865Z,101316.91
2022-10-09T12:35:21.291Z,101323.81
2022-10-09T12:37:47.718Z,101314.91
2022-10-09T12:40:29.378Z,101314.28
2022-10-09T12:42:58.204Z,101313.22
2022-10-09T12:45:27.056Z,101302.38
2022-10-09T12:47:54.866Z,101308.44
2022-10-09T12:50:33.058Z,101295.66
2022-10-09T12:53:02.029Z,101288.44
2022-10-09T12:55:33.603Z,101282.72
2022-10-09T12:58:04.949Z,101276.88
2022-10-09T13:00:35.536Z,101279.34
2022-10-09T13:03:01.880Z,101272.28
2022-10-09T13:05:42.220Z,101270.47
2022-10-09T13:08:23.810Z,101260.50
2022-10-09T13:10:50.805Z,101258.19
2022-10-09T13:13:22.559Z,101258.06
2022-10-09T13:16:02.391Z,101253.16
2022-10-09T13:18:29.240Z,101250.06
2022-10-09T13:21:01.552Z,101248.97
2022-10-09T13:23:35.337Z,101245.13
2022-10-09T13:26:04.240Z,101233.50
2022-10-09T13:28:30.805Z,101238.22
2022-10-09T13:31:06.446Z,101236.88
2022-10-09T13:33:32.855Z,101236.59
2022-10-09T13:35:59.200Z,101231.38
2022-10-09T13:38:25.512Z,101228.44
2022-10-09T13:40:51.899Z,101230.63
2022-10-09T13:43:21.814Z,101222.97
2022-10-09T13:45:48.288Z,101231.41
2022-10-09T13:48:14.974Z,101220.78
2022-10-09T13:50:41.310Z,101223.91
2022-10-09T13:53:07.620Z,101213.50
2022-10-09T13:55:34.061Z,101208.47
2022-10-09T13:58:00.356Z,101214.25
2022-10-09T14:00:26.808Z,101204.16
2022-10-09T14:02:53.096Z,101203.84
2022-10-09T14:05:19.562Z,101199.94
2022-10-09T14:07:45.860Z,101195.13
2022-10-09T14:10:12.174Z,101193.66
2022-10-09T14:12:38.720Z,101186.75
2022-10-09T14:15:06.082Z,101184.69
2022-10-09T14:17:32.524Z,101181.16
2022-10-09T14:19:58.855Z,101179.50
2022-10-09T14:22:25.192Z,101175.47
2022-10-09T14:24:51.495Z,101166.34
2022-10-09T14:27:17.819Z,101163.31
2022-10-09T14:29:44.144Z,101157.69
2022-10-09T14:32:10.445Z,101152.94
2022-10-09T14:34:36.767Z,101149.53
2022-10-09T14:37:07.312Z,101146.00
2022-10-09T14:39:40.108Z,101134.97
2022-10-09T14:42:06.402Z,101135.78
2022-10-09T14:44:32.806Z,101131.81
2022-10-09T14:46:59.097Z,101119.59
2022-10-09T14:49:25.415Z,101122.06
2022-10-09T14:51:53.974Z,101118.53
2022-10-09T14:54:20.469Z,101107.19
2022-10-09T14:56:46.789Z,101112.03
2022-10-09T14:59:13.087Z,101116.16
2022-10-09T15:01:39.388Z,101112.94
2022-10-09T15:04:06.268Z,101109.69
2022-10-09T15:06:33.059Z,101108.91
2022-10-09T15:09:04.526Z,101106.47
2022-10-09T15:11:33.120Z,101098.75
2022-10-09T15:13:59.427Z,101090.69
2022-10-09T15:16:26.089Z,101095.84
2022-10-09T15:18:54.924Z,101104.78
2022-10-09T15:21:23.973Z,101092.63
2022-10-09T15:23:50.748Z,101093.75
2022-10-09T15:26:17.145Z,101088.66
2022-10-09T15:28:43.924Z,101086.09
2022-10-09T15:31:19.832Z,101081.75
2022-10-09T15:33:46.105Z,101074.38
2022-10-09T15:36:12.377Z,101075.94
2022-10-09T15:38:39.901Z,101069.63
2022-10-09T15:41:06.191Z,101076.31
2022-10-09T15:43:32.497Z,101065.22
2022-10-09T15:46:02.922Z,101067.66
2022-10-09T15:48:29.921Z,101064.66
2022-10-09T15:50:56.325Z,101059.66
2022-10-09T15:53:24.161Z,101058.88
2022-10-09T15:55:52.849Z,101061.00
2022-10-09T15:58:19.506Z,101061.41
2022-10-09T16:00:48.957Z,101057.34
2022-10-09T16:03:17.467Z,101051.19
2022-10-09T16:05:46.354Z,101055.34
2022-10-09T16:08:12.870Z,101050.28
2022-10-09T16:10:48.855Z,101047.84
2022-10-09T16:13:15.783Z,101034.88
2022-10-09T16:15:42.900Z,101037.28
2022-10-09T16:18:09.486Z,101036.28
2022-10-09T16:20:37.426Z,101034.25
2022-10-09T16:23:04.422Z,101039.19
2022-10-09T16:25:30.812Z,101032.22
2022-10-09T16:27:57.180Z,101028.75
2022-10-09T16:30:23.681Z,101029.16
2022-10-09T16:32:50.258Z,101030.75
2022-10-09T16:35:16.983Z,101024.59
2022-10-09T16:37:43.448Z,101032.72
2022-10-09T16:40:10.178Z,101025.97
2022-10-09T16:42:36.548Z,101023.91
2022-10-09T16:45:03.790Z,101020.88
2022-10-09T16:47:30.390Z,101017.06
2022-10-09T16:49:56.695Z,101026.78
2022-10-09T16:52:23.031Z,101030.41
2022-10-09T16:54:49.445Z,101028.81
2022-10-09T16:57:17.202Z,101027.81
2022-10-09T16:59:44.947Z,101030.38
2022-10-09T17:02:12.458Z,101022.19
2022-10-09T17:04:38.837Z,101020.78
2022-10-09T17:07:05.162Z,101018.47
2022-10-09T17:09:31.462Z,101027.56
2022-10-09T17:11:57.787Z,101023.34
2022-10-09T17:14:24.113Z,101027.25
2022-10-09T17:16:50.576Z,101018.16
2022-10-09T17:19:16.956Z,101013.25
2022-10-09T17:21:43.407Z,101007.38
2022-10-09T17:24:13.953Z,101007.47
2022-10-09T17:26:41.138Z,101009.72
2022-10-09T17:29:07.764Z,101002.19
2022-10-09T17:31:34.318Z,101008.75
2022-10-09T17:34:03.385Z,101010.41
2022-10-09T17:36:33.015Z,101002.09
2022-10-09T17:38:59.529Z,101008.38
2022-10-09T17:41:27.827Z,101001.34
2022-10-09T17:43:55.628Z,101004.59
2022-10-09T17:46:23.964Z,101001.97
2022-10-09T17:48:50.767Z,100998.00
2022-10-09T17:51:23.504Z,101001.44
2022-10-09T17:53:49.932Z,101000.81
2022-10-09T17:56:16.964Z,100999.72
2022-10-09T17:58:43.783Z,100995.91
2022-10-09T18:01:11.923Z,101009.47
2022-10-09T18:03:38.349Z,101000.81
2022-10-09T18:06:07.080Z,100995.06
2022-10-09T18:08:33.530Z,100990.78
2022-10-09T18:11:02.543Z,100989.97
2022-10-09T18:13:29.373Z,100993.78
2022-10-09T18:15:55.723Z,100985.69
2022-10-09T18:18:22.195Z,100983.97
2022-10-09T18:20:48.878Z,100982.94
2022-10-09T18:23:18.454Z,100984.88
2022-10-09T18:25:48.204Z,100983.00
2022-10-09T18:28:14.743Z,100982.00
2022-10-09T18:30:42.640Z,100984.16
2022-10-09T18:33:09.493Z,100976.88
2022-10-09T18:35:37.517Z,100972.00
2022-10-09T18:38:04.585Z,100969.59
2022-10-09T18:40:31.019Z,100972.84
2022-10-09T18:42:57.419Z,100960.94
2022-10-09T18:45:24.231Z,100963.66
2022-10-09T18:47:51.107Z,100955.88
2022-10-09T18:50:17.527Z,100953.94
2022-10-09T18:52:43.972Z,100962.41
2022-10-09T18:55:14.897Z,100951.50
2022-10-09T18:57:41.615Z,100948.31
2022-10-09T19:00:08.990Z,100937.16
2022-10-09T19:02:35.473Z,100936.97
2022-10-09T19:05:01.834Z,100937.81
2022-10-09T19:07:28.224Z,100936.75
2022-10-09T19:09:57.329Z,100935.13
2022-10-09T19:12:24.500Z,100940.03
2022-10-09T19:14:51.125Z,100936.78
2022-10-09T19:17:17.578Z,100933.56
2022-10-09T19:19:43.936Z,100933.28
2022-10-09T19:22:14.885Z,100930.88
2022-10-09T19:24:42.670Z,100934.13
2022-10-09T19:27:09.293Z,100925.22
2022-10-09T19:29:36.115Z,100922.81
2022-10-09T19:32:02.479Z,100917.91
2022-10-09T19:34:29.669Z,100918.50
2022-10-09T19:36:56.075Z,100923.91
2022-10-09T19:39:22.477Z,100924.16
2022-10-09T19:41:49.038Z,100911.44
2022-10-09T19:44:15.451Z,100918.22
2022-10-09T19:46:41.839Z,100919.56
2022-10-09T19:49:08.575Z,100920.66
2022-10-09T19:51:36.183Z,100914.16
2022-10-09T19:54:04.044Z,100904.94
2022-10-09T19:56:32.536Z,100899.00
2022-10-09T19:59:01.393Z,100907.44
2022-10-09T20:01:29.328Z,100899.59
2022-10-09T20:03:58.199Z,100898.47
2022-10-09T20:06:25.347Z,100895.19
2022-10-09T20:08:51.995Z,100893.03
2022-10-09T20:11:18.440Z,100894.13
2022-10-09T20:13:44.797Z,100893.06
2022-10-09T20:16:13.171Z,100894.69
2022-10-09T20:18:40.579Z,100899.00
2022-10-09T20:21:06.958Z,100895.75
2022-10-09T20:23:33.364Z,100889.00
2022-10-09T20:26:07.017Z,100891.69
2022-10-09T20:28:35.216Z,100892.78
2022-10-09T20:31:03.886Z,100901.19
2022-10-09T20:33:30.261Z,100888.75
2022-10-09T20:35:56.613Z,100893.63
2022-10-09T20:38:25.795Z,100886.59
2022-10-09T20:40:52.900Z,100883.66
2022-10-09T20:43:19.463Z,100883.34
2022-10-09T20:45:46.341Z,100884.97
2022-10-09T20:48:12.725Z,100881.19
2022-10-09T20:50:41.155Z,100878.75
2022-10-09T20:53:09.001Z,100870.63
2022-10-09T20:55:35.897Z,100870.06
2022-10-09T20:58:03.093Z,100867.66
2022-10-09T21:00:29.823Z,100864.41
2022-10-09T21:02:56.437Z,100863.84
2022-10-09T21:05:22.814Z,100863.34
2022-10-09T21:07:49.202Z,100857.94
2022-10-09T21:10:15.733Z,100857.09
2022-10-09T21:12:42.098Z,100855.22
2022-10-09T21:15:08.842Z,100854.94
2022-10-09T21:17:35.214Z,100850.63
2022-10-09T21:20:01.870Z,100850.34
2022-10-09T21:22:28.213Z,100854.69
2022-10-09T21:24:54.568Z,100853.06
2022-10-09T21:27:20.948Z,100844.91
2022-10-09T21:29:47.324Z,100847.63
2022-10-09T21:32:13.669Z,100840.31
2022-10-09T21:34:40.048Z,100844.91
2022-10-09T21:37:21.037Z,100841.66
2022-10-09T21:39:48.084Z,100837.34
2022-10-09T21:42:14.525Z,100837.34
2022-10-09T21:44:40.893Z,100831.94
2022-10-09T21:47:16.058Z,100831.69
2022-10-09T21:49:42.458Z,100837.91
2022-10-09T21:52:09.588Z,100836.28
2022-10-09T21:54:36.018Z,100824.38
2022-10-09T21:57:02.414Z,100832.78
2022-10-09T21:59:28.956Z,100829.22
2022-10-09T22:01:55.367Z,100819.22
2022-10-09T22:04:21.744Z,100818.69
2022-10-09T22:06:48.164Z,100799.50
2022-10-09T22:09:14.745Z,100807.06
2022-10-09T22:11:41.118Z,100810.31
2022-10-09T22:14:07.776Z,100814.34
2022-10-09T22:16:34.148Z,100800.03
2022-10-09T22:19:00.564Z,100791.38
2022-10-09T22:21:26.942Z,100793.00
2022-10-09T22:23:53.317Z,100785.97
2022-10-09T22:26:22.347Z,100791.38
2022-10-09T22:28:49.413Z,100787.31
2022-10-09T22:31:20.670Z,100788.94
2022-10-09T22:33:54.760Z,100785.97
2022-10-09T22:36:22.836Z,100779.50
2022-10-09T22:38:49.562Z,100780.56
2022-10-09T22:41:18.736Z,100780.31
2022-10-09T22:43:49.086Z,100776.47
2022-10-09T22:46:18.961Z,100777.84
2022-10-09T22:48:45.502Z,100769.19
2022-10-09T22:51:15.555Z,100771.91
2022-10-09T22:53:42.848Z,100772.13
2022-10-09T22:56:15.682Z,100772.41
2022-10-09T22:58:42.686Z,100770.25
2022-10-09T23:01:24.671Z,100768.09
2022-10-09T23:03:51.068Z,100763.78
2022-10-09T23:06:19.672Z,100755.66
2022-10-09T23:08:47.749Z,100757.81
2022-10-09T23:11:15.812Z,100751.06
2022-10-09T23:13:42.808Z,100755.66
2022-10-09T23:16:10.905Z,100756.78
2022-10-09T23:18:38.614Z,100751.09
2022-10-09T23:21:07.173Z,100746.50
2022-10-09T23:23:33.662Z,100752.72
2022-10-09T23:26:08.006Z,100738.94
2022-10-09T23:28:35.356Z,100740.53
2022-10-09T23:31:07.387Z,100729.75
2022-10-09T23:33:34.165Z,100728.91
2022-10-09T23:36:04.516Z,100724.59
2022-10-09T23:38:31.044Z,100725.69
2022-10-09T23:40:59.343Z,100722.75
2022-10-09T23:43:26.671Z,100719.22
2022-10-09T23:45:57.761Z,100719.78
2022-10-09T23:48:24.235Z,100719.53
2022-10-09T23:50:52.068Z,100716.78
2022-10-09T23:53:19.013Z,100712.47
2022-10-09T23:55:45.702Z,100718.41
2022-10-09T23:58:13.690Z,100713.03
